sensor_id;sensor_type;location;lat;lon;timestamp;P1;durP1;ratioP1;P2;durP2;ratioP2
17852;SDS011;9052;53.494;14.376;2023-05-10T00:00:48;7.20;;;3.50;;
17852;SDS011;9052;53.494;14.376;2023-05-10T00:03:15;7.73;;;3.47;;
17852;SDS011;9052;53.494;14.376;2023-05-10T00:05:42;4.50;;;3.27;;
17852;SDS011;9052;53.494;14.376;2023-05-10T00:08:10;4.03;;;3.27;;
17852;SDS011;9052;53.494;14.376;2023-05-10T00:10:37;12.20;;;3.43;;
17852;SDS011;9052;53.494;14.376;2023-05-10T00:13:04;3.53;;;2.50;;
17852;SDS011;9052;53.494;14.376;2023-05-10T00:15:31;6.33;;;3.33;;
17852;SDS011;9052;53.494;14.376;2023-05-10T00:17:57;5.73;;;4.10;;
17852;SDS011;9052;53.494;14.376;2023-05-10T00:20:24;3.73;;;3.53;;
17852;SDS011;9052;53.494;14.376;2023-05-10T00:22:51;7.77;;;4.50;;
17852;SDS011;9052;53.494;14.376;2023-05-10T00:25:19;3.70;;;3.03;;
17852;SDS011;9052;53.494;14.376;2023-05-10T00:27:46;4.87;;;3.20;;
17852;SDS011;9052;53.494;14.376;2023-05-10T00:30:13;4.37;;;3.90;;
17852;SDS011;9052;53.494;14.376;2023-05-10T00:32:40;4.53;;;3.30;;
17852;SDS011;9052;53.494;14.376;2023-05-10T00:35:07;5.30;;;3.53;;
17852;SDS011;9052;53.494;14.376;2023-05-10T00:37:34;21.73;;;3.67;;
17852;SDS011;9052;53.494;14.376;2023-05-10T00:40:00;12.10;;;4.10;;
17852;SDS011;9052;53.494;14.376;2023-05-10T00:42:28;10.90;;;5.20;;
17852;SDS011;9052;53.494;14.376;2023-05-10T00:44:55;7.67;;;4.70;;
17852;SDS011;9052;53.494;14.376;2023-05-10T00:47:22;9.00;;;4.13;;
17852;SDS011;9052;53.494;14.376;2023-05-10T00:49:49;4.23;;;2.97;;
17852;SDS011;9052;53.494;14.376;2023-05-10T00:52:16;9.40;;;3.73;;
17852;SDS011;9052;53.494;14.376;2023-05-10T00:54:42;8.83;;;4.30;;
17852;SDS011;9052;53.494;14.376;2023-05-10T00:57:09;18.63;;;3.93;;
17852;SDS011;9052;53.494;14.376;2023-05-10T00:59:37;12.17;;;3.80;;
17852;SDS011;9052;53.494;14.376;2023-05-10T01:02:04;4.27;;;3.87;;
17852;SDS011;9052;53.494;14.376;2023-05-10T01:04:31;6.40;;;4.37;;
17852;SDS011;9052;53.494;14.376;2023-05-10T01:06:58;8.00;;;3.73;;
17852;SDS011;9052;53.494;14.376;2023-05-10T01:09:24;3.80;;;3.40;;
17852;SDS011;9052;53.494;14.376;2023-05-10T01:11:52;12.53;;;4.27;;
17852;SDS011;9052;53.494;14.376;2023-05-10T01:14:19;18.07;;;4.50;;
17852;SDS011;9052;53.494;14.376;2023-05-10T01:16:48;4.93;;;3.70;;
17852;SDS011;9052;53.494;14.376;2023-05-10T01:19:16;15.00;;;4.43;;
17852;SDS011;9052;53.494;14.376;2023-05-10T01:21:46;5.50;;;3.63;;
17852;SDS011;9052;53.494;14.376;2023-05-10T01:24:32;8.53;;;4.60;;
17852;SDS011;9052;53.494;14.376;2023-05-10T01:27:03;11.37;;;4.33;;
17852;SDS011;9052;53.494;14.376;2023-05-10T01:32:25;4.13;;;3.73;;
17852;SDS011;9052;53.494;14.376;2023-05-10T01:34:54;3.97;;;3.40;;
17852;SDS011;9052;53.494;14.376;2023-05-10T01:37:28;4.50;;;4.00;;
17852;SDS011;9052;53.494;14.376;2023-05-10T01:39:58;29.80;;;4.33;;
17852;SDS011;9052;53.494;14.376;2023-05-10T01:42:27;8.10;;;3.57;;
17852;SDS011;9052;53.494;14.376;2023-05-10T01:44:58;26.17;;;5.40;;
17852;SDS011;9052;53.494;14.376;2023-05-10T01:47:30;6.23;;;4.30;;
17852;SDS011;9052;53.494;14.376;2023-05-10T01:49:57;11.73;;;4.10;;
17852;SDS011;9052;53.494;14.376;2023-05-10T01:52:29;5.00;;;4.50;;
17852;SDS011;9052;53.494;14.376;2023-05-10T01:55:02;4.63;;;4.30;;
17852;SDS011;9052;53.494;14.376;2023-05-10T01:57:32;8.90;;;3.57;;
17852;SDS011;9052;53.494;14.376;2023-05-10T01:59:59;5.23;;;4.63;;
17852;SDS011;9052;53.494;14.376;2023-05-10T02:02:29;5.13;;;4.53;;
17852;SDS011;9052;53.494;14.376;2023-05-10T02:04:56;11.93;;;4.90;;
17852;SDS011;9052;53.494;14.376;2023-05-10T02:07:23;4.50;;;4.10;;
17852;SDS011;9052;53.494;14.376;2023-05-10T02:09:50;11.17;;;4.37;;
17852;SDS011;9052;53.494;14.376;2023-05-10T02:12:17;12.00;;;5.30;;
17852;SDS011;9052;53.494;14.376;2023-05-10T02:14:44;6.03;;;3.73;;
17852;SDS011;9052;53.494;14.376;2023-05-10T02:17:11;9.60;;;4.67;;
17852;SDS011;9052;53.494;14.376;2023-05-10T02:19:40;6.80;;;4.83;;
17852;SDS011;9052;53.494;14.376;2023-05-10T02:22:08;19.70;;;5.20;;
17852;SDS011;9052;53.494;14.376;2023-05-10T02:24:35;12.13;;;4.80;;
17852;SDS011;9052;53.494;14.376;2023-05-10T02:27:02;7.63;;;4.23;;
17852;SDS011;9052;53.494;14.376;2023-05-10T02:29:29;6.93;;;5.13;;
17852;SDS011;9052;53.494;14.376;2023-05-10T02:31:57;5.17;;;4.77;;
17852;SDS011;9052;53.494;14.376;2023-05-10T02:34:25;8.37;;;5.20;;
17852;SDS011;9052;53.494;14.376;2023-05-10T02:36:53;11.53;;;5.10;;
17852;SDS011;9052;53.494;14.376;2023-05-10T02:39:21;6.83;;;4.80;;
17852;SDS011;9052;53.494;14.376;2023-05-10T02:41:48;6.33;;;4.90;;
17852;SDS011;9052;53.494;14.376;2023-05-10T02:44:17;8.20;;;4.50;;
17852;SDS011;9052;53.494;14.376;2023-05-10T02:46:45;10.43;;;5.40;;
17852;SDS011;9052;53.494;14.376;2023-05-10T02:49:11;7.50;;;5.20;;
17852;SDS011;9052;53.494;14.376;2023-05-10T02:51:40;11.60;;;5.50;;
17852;SDS011;9052;53.494;14.376;2023-05-10T02:54:10;6.47;;;4.60;;
17852;SDS011;9052;53.494;14.376;2023-05-10T02:56:40;10.80;;;4.37;;
17852;SDS011;9052;53.494;14.376;2023-05-10T02:59:09;6.57;;;4.20;;
17852;SDS011;9052;53.494;14.376;2023-05-10T03:01:36;5.10;;;4.00;;
17852;SDS011;9052;53.494;14.376;2023-05-10T03:04:03;7.97;;;5.10;;
17852;SDS011;9052;53.494;14.376;2023-05-10T03:06:30;14.50;;;4.83;;
17852;SDS011;9052;53.494;14.376;2023-05-10T03:08:56;3.93;;;3.53;;
17852;SDS011;9052;53.494;14.376;2023-05-10T03:11:31;7.23;;;4.53;;
17852;SDS011;9052;53.494;14.376;2023-05-10T03:14:04;8.33;;;4.50;;
17852;SDS011;9052;53.494;14.376;2023-05-10T03:16:34;5.00;;;3.90;;
17852;SDS011;9052;53.494;14.376;2023-05-10T03:19:04;8.37;;;4.97;;
17852;SDS011;9052;53.494;14.376;2023-05-10T03:21:33;8.80;;;4.87;;
17852;SDS011;9052;53.494;14.376;2023-05-10T03:24:04;8.40;;;5.27;;
17852;SDS011;9052;53.494;14.376;2023-05-10T03:26:33;4.73;;;4.20;;
17852;SDS011;9052;53.494;14.376;2023-05-10T03:29:00;10.27;;;4.80;;
17852;SDS011;9052;53.494;14.376;2023-05-10T03:31:27;12.07;;;4.67;;
17852;SDS011;9052;53.494;14.376;2023-05-10T03:33:54;7.77;;;4.40;;
17852;SDS011;9052;53.494;14.376;2023-05-10T03:36:20;11.80;;;4.60;;
17852;SDS011;9052;53.494;14.376;2023-05-10T03:38:47;8.83;;;4.20;;
17852;SDS011;9052;53.494;14.376;2023-05-10T03:41:14;10.70;;;4.43;;
17852;SDS011;9052;53.494;14.376;2023-05-10T03:43:42;5.10;;;4.57;;
17852;SDS011;9052;53.494;14.376;2023-05-10T03:46:09;14.30;;;4.57;;
17852;SDS011;9052;53.494;14.376;2023-05-10T03:48:35;5.10;;;4.60;;
17852;SDS011;9052;53.494;14.376;2023-05-10T03:51:02;12.20;;;4.70;;
17852;SDS011;9052;53.494;14.376;2023-05-10T03:53:29;8.90;;;5.00;;
17852;SDS011;9052;53.494;14.376;2023-05-10T03:55:55;7.57;;;4.30;;
17852;SDS011;9052;53.494;14.376;2023-05-10T03:58:22;10.60;;;4.80;;
17852;SDS011;9052;53.494;14.376;2023-05-10T04:00:50;8.40;;;4.23;;
17852;SDS011;9052;53.494;14.376;2023-05-10T04:03:17;23.80;;;5.47;;
17852;SDS011;9052;53.494;14.376;2023-05-10T04:05:43;5.03;;;4.63;;
17852;SDS011;9052;53.494;14.376;2023-05-10T04:08:10;6.17;;;5.30;;
17852;SDS011;9052;53.494;14.376;2023-05-10T04:10:37;6.30;;;4.80;;
17852;SDS011;9052;53.494;14.376;2023-05-10T04:13:03;15.63;;;5.23;;
17852;SDS011;9052;53.494;14.376;2023-05-10T04:15:30;8.20;;;4.90;;
17852;SDS011;9052;53.494;14.376;2023-05-10T04:17:58;5.90;;;4.10;;
17852;SDS011;9052;53.494;14.376;2023-05-10T04:20:24;8.20;;;4.23;;
17852;SDS011;9052;53.494;14.376;2023-05-10T04:22:51;8.47;;;4.80;;
17852;SDS011;9052;53.494;14.376;2023-05-10T04:25:18;4.97;;;4.40;;
17852;SDS011;9052;53.494;14.376;2023-05-10T04:27:47;5.70;;;5.03;;
17852;SDS011;9052;53.494;14.376;2023-05-10T04:30:13;7.73;;;4.33;;
17852;SDS011;9052;53.494;14.376;2023-05-10T04:32:40;7.33;;;5.00;;
17852;SDS011;9052;53.494;14.376;2023-05-10T04:35:08;11.17;;;5.03;;
17852;SDS011;9052;53.494;14.376;2023-05-10T04:37:35;15.67;;;4.93;;
17852;SDS011;9052;53.494;14.376;2023-05-10T04:40:03;5.20;;;4.33;;
17852;SDS011;9052;53.494;14.376;2023-05-10T04:42:30;8.43;;;5.47;;
17852;SDS011;9052;53.494;14.376;2023-05-10T04:44:57;10.30;;;5.30;;
17852;SDS011;9052;53.494;14.376;2023-05-10T04:47:24;8.80;;;4.83;;
17852;SDS011;9052;53.494;14.376;2023-05-10T04:49:50;7.27;;;5.07;;
17852;SDS011;9052;53.494;14.376;2023-05-10T04:52:18;6.37;;;4.57;;
17852;SDS011;9052;53.494;14.376;2023-05-10T04:54:45;8.83;;;4.63;;
17852;SDS011;9052;53.494;14.376;2023-05-10T04:57:11;9.33;;;5.30;;
17852;SDS011;9052;53.494;14.376;2023-05-10T04:59:38;8.50;;;5.00;;
17852;SDS011;9052;53.494;14.376;2023-05-10T05:02:04;5.67;;;4.17;;
17852;SDS011;9052;53.494;14.376;2023-05-10T05:04:31;5.97;;;4.73;;
17852;SDS011;9052;53.494;14.376;2023-05-10T05:06:59;11.30;;;5.20;;
17852;SDS011;9052;53.494;14.376;2023-05-10T05:09:27;9.13;;;5.77;;
17852;SDS011;9052;53.494;14.376;2023-05-10T05:11:54;14.63;;;5.23;;
17852;SDS011;9052;53.494;14.376;2023-05-10T05:14:20;5.97;;;4.17;;
17852;SDS011;9052;53.494;14.376;2023-05-10T05:16:47;9.80;;;4.97;;
17852;SDS011;9052;53.494;14.376;2023-05-10T05:19:14;12.70;;;5.83;;
17852;SDS011;9052;53.494;14.376;2023-05-10T05:21:40;6.27;;;4.97;;
17852;SDS011;9052;53.494;14.376;2023-05-10T05:24:07;5.70;;;5.10;;
17852;SDS011;9052;53.494;14.376;2023-05-10T05:26:36;12.23;;;5.50;;
17852;SDS011;9052;53.494;14.376;2023-05-10T05:29:03;6.90;;;4.40;;
17852;SDS011;9052;53.494;14.376;2023-05-10T05:31:29;12.80;;;5.70;;
17852;SDS011;9052;53.494;14.376;2023-05-10T05:33:56;17.33;;;5.50;;
17852;SDS011;9052;53.494;14.376;2023-05-10T05:36:23;7.60;;;5.80;;
17852;SDS011;9052;53.494;14.376;2023-05-10T05:38:49;9.37;;;4.90;;
17852;SDS011;9052;53.494;14.376;2023-05-10T05:41:16;8.67;;;4.90;;
17852;SDS011;9052;53.494;14.376;2023-05-10T05:43:44;12.63;;;4.90;;
17852;SDS011;9052;53.494;14.376;2023-05-10T05:46:11;12.27;;;5.90;;
17852;SDS011;9052;53.494;14.376;2023-05-10T05:48:37;6.23;;;4.37;;
17852;SDS011;9052;53.494;14.376;2023-05-10T05:51:04;12.20;;;5.23;;
17852;SDS011;9052;53.494;14.376;2023-05-10T05:53:30;17.83;;;5.90;;
17852;SDS011;9052;53.494;14.376;2023-05-10T05:55:57;9.17;;;5.47;;
17852;SDS011;9052;53.494;14.376;2023-05-10T05:58:24;10.03;;;6.20;;
17852;SDS011;9052;53.494;14.376;2023-05-10T06:00:53;8.83;;;5.20;;
17852;SDS011;9052;53.494;14.376;2023-05-10T06:03:20;7.60;;;4.90;;
17852;SDS011;9052;53.494;14.376;2023-05-10T06:05:47;11.07;;;5.03;;
17852;SDS011;9052;53.494;14.376;2023-05-10T06:08:14;11.30;;;5.10;;
17852;SDS011;9052;53.494;14.376;2023-05-10T06:10:40;26.60;;;5.10;;
17852;SDS011;9052;53.494;14.376;2023-05-10T06:13:07;14.10;;;5.33;;
17852;SDS011;9052;53.494;14.376;2023-05-10T06:15:33;8.83;;;4.77;;
17852;SDS011;9052;53.494;14.376;2023-05-10T06:18:01;9.30;;;5.20;;
17852;SDS011;9052;53.494;14.376;2023-05-10T06:20:28;7.93;;;5.20;;
17852;SDS011;9052;53.494;14.376;2023-05-10T06:22:56;16.73;;;4.83;;
17852;SDS011;9052;53.494;14.376;2023-05-10T06:25:23;14.60;;;5.10;;
17852;SDS011;9052;53.494;14.376;2023-05-10T06:27:49;5.67;;;4.63;;
17852;SDS011;9052;53.494;14.376;2023-05-10T06:30:20;5.40;;;3.10;;
17852;SDS011;9052;53.494;14.376;2023-05-10T06:32:48;16.93;;;4.90;;
17852;SDS011;9052;53.494;14.376;2023-05-10T06:35:16;8.13;;;5.23;;
17852;SDS011;9052;53.494;14.376;2023-05-10T06:37:43;13.93;;;4.30;;
17852;SDS011;9052;53.494;14.376;2023-05-10T06:40:09;4.67;;;4.27;;
17852;SDS011;9052;53.494;14.376;2023-05-10T06:42:36;8.73;;;4.80;;
17852;SDS011;9052;53.494;14.376;2023-05-10T06:45:03;15.40;;;4.17;;
17852;SDS011;9052;53.494;14.376;2023-05-10T06:47:30;10.10;;;4.30;;
17852;SDS011;9052;53.494;14.376;2023-05-10T06:49:57;28.07;;;4.60;;
17852;SDS011;9052;53.494;14.376;2023-05-10T06:52:25;10.10;;;4.20;;
17852;SDS011;9052;53.494;14.376;2023-05-10T06:54:51;4.30;;;3.90;;
17852;SDS011;9052;53.494;14.376;2023-05-10T06:57:18;11.67;;;3.40;;
17852;SDS011;9052;53.494;14.376;2023-05-10T06:59:45;7.67;;;4.83;;
17852;SDS011;9052;53.494;14.376;2023-05-10T07:02:12;10.13;;;5.03;;
17852;SDS011;9052;53.494;14.376;2023-05-10T07:04:39;8.10;;;3.23;;
17852;SDS011;9052;53.494;14.376;2023-05-10T07:07:06;4.77;;;3.87;;
17852;SDS011;9052;53.494;14.376;2023-05-10T07:09:34;7.43;;;3.80;;
17852;SDS011;9052;53.494;14.376;2023-05-10T07:12:01;10.30;;;4.00;;
17852;SDS011;9052;53.494;14.376;2023-05-10T07:14:28;6.00;;;2.90;;
17852;SDS011;9052;53.494;14.376;2023-05-10T07:16:54;3.73;;;2.47;;
17852;SDS011;9052;53.494;14.376;2023-05-10T07:19:21;13.53;;;3.60;;
17852;SDS011;9052;53.494;14.376;2023-05-10T07:21:48;10.33;;;3.40;;
17852;SDS011;9052;53.494;14.376;2023-05-10T07:24:16;16.23;;;4.03;;
17852;SDS011;9052;53.494;14.376;2023-05-10T07:26:44;4.93;;;3.27;;
17852;SDS011;9052;53.494;14.376;2023-05-10T07:29:10;13.20;;;3.27;;
17852;SDS011;9052;53.494;14.376;2023-05-10T07:31:37;3.23;;;2.93;;
17852;SDS011;9052;53.494;14.376;2023-05-10T07:34:04;5.60;;;3.13;;
17852;SDS011;9052;53.494;14.376;2023-05-10T07:36:30;10.80;;;3.60;;
17852;SDS011;9052;53.494;14.376;2023-05-10T07:38:57;5.40;;;3.40;;
17852;SDS011;9052;53.494;14.376;2023-05-10T07:41:24;11.27;;;3.13;;
17852;SDS011;9052;53.494;14.376;2023-05-10T07:43:54;5.87;;;3.13;;
17852;SDS011;9052;53.494;14.376;2023-05-10T07:46:21;22.40;;;3.17;;
17852;SDS011;9052;53.494;14.376;2023-05-10T07:48:48;4.20;;;3.80;;
17852;SDS011;9052;53.494;14.376;2023-05-10T07:51:15;7.33;;;3.63;;
17852;SDS011;9052;53.494;14.376;2023-05-10T07:53:44;15.53;;;3.40;;
17852;SDS011;9052;53.494;14.376;2023-05-10T07:56:20;12.50;;;3.67;;
17852;SDS011;9052;53.494;14.376;2023-05-10T07:58:47;6.57;;;3.10;;
17852;SDS011;9052;53.494;14.376;2023-05-10T08:01:15;5.40;;;3.00;;
17852;SDS011;9052;53.494;14.376;2023-05-10T08:03:42;4.90;;;3.20;;
17852;SDS011;9052;53.494;14.376;2023-05-10T08:06:08;6.10;;;3.30;;
17852;SDS011;9052;53.494;14.376;2023-05-10T08:08:35;10.03;;;3.60;;
17852;SDS011;9052;53.494;14.376;2023-05-10T08:11:02;6.27;;;3.17;;
17852;SDS011;9052;53.494;14.376;2023-05-10T08:13:28;7.53;;;3.27;;
17852;SDS011;9052;53.494;14.376;2023-05-10T08:15:56;4.70;;;3.20;;
17852;SDS011;9052;53.494;14.376;2023-05-10T08:18:24;9.23;;;3.57;;
17852;SDS011;9052;53.494;14.376;2023-05-10T08:20:51;29.83;;;4.17;;
17852;SDS011;9052;53.494;14.376;2023-05-10T08:23:17;3.50;;;3.20;;
17852;SDS011;9052;53.494;14.376;2023-05-10T08:25:44;6.33;;;3.00;;
17852;SDS011;9052;53.494;14.376;2023-05-10T08:28:10;3.00;;;2.80;;
17852;SDS011;9052;53.494;14.376;2023-05-10T08:30:37;7.43;;;3.60;;
17852;SDS011;9052;53.494;14.376;2023-05-10T08:33:04;3.60;;;3.23;;
17852;SDS011;9052;53.494;14.376;2023-05-10T08:35:32;12.30;;;3.67;;
17852;SDS011;9052;53.494;14.376;2023-05-10T08:38:00;3.77;;;3.23;;
17852;SDS011;9052;53.494;14.376;2023-05-10T08:40:26;4.80;;;3.53;;
17852;SDS011;9052;53.494;14.376;2023-05-10T08:42:54;5.43;;;3.37;;
17852;SDS011;9052;53.494;14.376;2023-05-10T08:45:21;7.10;;;3.73;;
17852;SDS011;9052;53.494;14.376;2023-05-10T08:47:49;2.97;;;2.63;;
17852;SDS011;9052;53.494;14.376;2023-05-10T08:50:16;8.77;;;4.20;;
17852;SDS011;9052;53.494;14.376;2023-05-10T08:52:45;2.73;;;2.27;;
17852;SDS011;9052;53.494;14.376;2023-05-10T08:55:12;8.90;;;3.30;;
17852;SDS011;9052;53.494;14.376;2023-05-10T08:57:39;2.83;;;2.63;;
17852;SDS011;9052;53.494;14.376;2023-05-10T09:00:06;2.70;;;2.27;;
17852;SDS011;9052;53.494;14.376;2023-05-10T09:02:34;4.63;;;3.60;;
17852;SDS011;9052;53.494;14.376;2023-05-10T09:05:01;3.30;;;2.50;;
17852;SDS011;9052;53.494;14.376;2023-05-10T09:07:29;3.27;;;2.97;;
17852;SDS011;9052;53.494;14.376;2023-05-10T09:09:57;7.23;;;2.70;;
17852;SDS011;9052;53.494;14.376;2023-05-10T09:12:24;3.27;;;3.07;;
17852;SDS011;9052;53.494;14.376;2023-05-10T09:14:51;2.97;;;2.77;;
17852;SDS011;9052;53.494;14.376;2023-05-10T09:17:18;6.83;;;3.20;;
17852;SDS011;9052;53.494;14.376;2023-05-10T09:19:45;3.47;;;3.17;;
17852;SDS011;9052;53.494;14.376;2023-05-10T09:22:11;3.00;;;2.77;;
17852;SDS011;9052;53.494;14.376;2023-05-10T09:24:39;28.73;;;3.13;;
17852;SDS011;9052;53.494;14.376;2023-05-10T09:27:11;6.47;;;3.30;;
17852;SDS011;9052;53.494;14.376;2023-05-10T09:29:41;5.73;;;2.37;;
17852;SDS011;9052;53.494;14.376;2023-05-10T09:32:08;3.87;;;3.17;;
17852;SDS011;9052;53.494;14.376;2023-05-10T09:34:35;8.77;;;2.30;;
17852;SDS011;9052;53.494;14.376;2023-05-10T09:37:05;16.83;;;4.20;;
17852;SDS011;9052;53.494;14.376;2023-05-10T09:39:33;19.50;;;3.60;;
17852;SDS011;9052;53.494;14.376;2023-05-10T09:42:01;57.70;;;4.67;;
17852;SDS011;9052;53.494;14.376;2023-05-10T09:44:30;34.07;;;3.37;;
17852;SDS011;9052;53.494;14.376;2023-05-10T09:46:56;8.07;;;3.03;;
17852;SDS011;9052;53.494;14.376;2023-05-10T09:49:23;4.97;;;2.80;;
17852;SDS011;9052;53.494;14.376;2023-05-10T09:51:59;5.07;;;2.90;;
17852;SDS011;9052;53.494;14.376;2023-05-10T09:54:26;3.87;;;3.40;;
17852;SDS011;9052;53.494;14.376;2023-05-10T09:56:52;11.70;;;3.10;;
17852;SDS011;9052;53.494;14.376;2023-05-10T09:59:19;2.90;;;2.30;;
17852;SDS011;9052;53.494;14.376;2023-05-10T10:01:50;3.10;;;2.60;;
17852;SDS011;9052;53.494;14.376;2023-05-10T10:04:17;8.73;;;2.47;;
17852;SDS011;9052;53.494;14.376;2023-05-10T10:06:43;3.23;;;2.90;;
17852;SDS011;9052;53.494;14.376;2023-05-10T10:09:10;8.00;;;3.83;;
17852;SDS011;9052;53.494;14.376;2023-05-10T10:11:37;4.87;;;2.53;;
17852;SDS011;9052;53.494;14.376;2023-05-10T10:14:04;5.20;;;3.20;;
17852;SDS011;9052;53.494;14.376;2023-05-10T10:16:31;3.50;;;2.67;;
17852;SDS011;9052;53.494;14.376;2023-05-10T10:19:00;4.23;;;2.50;;
17852;SDS011;9052;53.494;14.376;2023-05-10T10:21:26;25.73;;;2.87;;
17852;SDS011;9052;53.494;14.376;2023-05-10T10:23:53;4.00;;;2.50;;
17852;SDS011;9052;53.494;14.376;2023-05-10T10:26:21;6.67;;;2.10;;
17852;SDS011;9052;53.494;14.376;2023-05-10T10:28:49;8.67;;;2.20;;
17852;SDS011;9052;53.494;14.376;2023-05-10T10:31:20;5.40;;;1.90;;
17852;SDS011;9052;53.494;14.376;2023-05-10T10:33:52;9.40;;;2.53;;
17852;SDS011;9052;53.494;14.376;2023-05-10T10:36:23;3.30;;;2.40;;
17852;SDS011;9052;53.494;14.376;2023-05-10T10:38:55;7.40;;;2.50;;
17852;SDS011;9052;53.494;14.376;2023-05-10T10:41:28;3.40;;;2.30;;
17852;SDS011;9052;53.494;14.376;2023-05-10T10:46:46;8.63;;;2.20;;
17852;SDS011;9052;53.494;14.376;2023-05-10T10:49:24;2.30;;;1.97;;
17852;SDS011;9052;53.494;14.376;2023-05-10T10:54:37;8.57;;;2.63;;
17852;SDS011;9052;53.494;14.376;2023-05-10T10:57:10;6.37;;;2.80;;
17852;SDS011;9052;53.494;14.376;2023-05-10T10:59:40;22.43;;;2.23;;
17852;SDS011;9052;53.494;14.376;2023-05-10T11:02:08;2.80;;;2.03;;
17852;SDS011;9052;53.494;14.376;2023-05-10T11:04:41;10.83;;;2.90;;
17852;SDS011;9052;53.494;14.376;2023-05-10T11:07:17;11.40;;;3.60;;
17852;SDS011;9052;53.494;14.376;2023-05-10T11:09:45;4.90;;;2.33;;
17852;SDS011;9052;53.494;14.376;2023-05-10T11:12:12;5.30;;;2.90;;
17852;SDS011;9052;53.494;14.376;2023-05-10T11:14:38;5.83;;;2.20;;
17852;SDS011;9052;53.494;14.376;2023-05-10T11:20:02;3.40;;;2.40;;
17852;SDS011;9052;53.494;14.376;2023-05-10T11:22:29;14.40;;;3.10;;
17852;SDS011;9052;53.494;14.376;2023-05-10T11:25:16;5.30;;;2.40;;
17852;SDS011;9052;53.494;14.376;2023-05-10T11:27:43;9.73;;;2.20;;
17852;SDS011;9052;53.494;14.376;2023-05-10T11:30:10;51.63;;;2.93;;
17852;SDS011;9052;53.494;14.376;2023-05-10T11:32:37;6.90;;;2.30;;
17852;SDS011;9052;53.494;14.376;2023-05-10T11:35:06;4.93;;;2.33;;
17852;SDS011;9052;53.494;14.376;2023-05-10T11:37:33;24.60;;;3.57;;
17852;SDS011;9052;53.494;14.376;2023-05-10T11:40:00;10.30;;;2.47;;
17852;SDS011;9052;53.494;14.376;2023-05-10T11:42:29;11.20;;;2.93;;
17852;SDS011;9052;53.494;14.376;2023-05-10T11:44:55;2.60;;;2.20;;
17852;SDS011;9052;53.494;14.376;2023-05-10T11:47:22;9.23;;;2.63;;
17852;SDS011;9052;53.494;14.376;2023-05-10T11:49:49;3.97;;;1.87;;
17852;SDS011;9052;53.494;14.376;2023-05-10T11:52:15;5.80;;;1.90;;
17852;SDS011;9052;53.494;14.376;2023-05-10T11:54:45;15.63;;;2.67;;
17852;SDS011;9052;53.494;14.376;2023-05-10T11:57:12;6.07;;;2.30;;
17852;SDS011;9052;53.494;14.376;2023-05-10T11:59:40;6.10;;;2.10;;
17852;SDS011;9052;53.494;14.376;2023-05-10T12:02:07;12.77;;;1.90;;
17852;SDS011;9052;53.494;14.376;2023-05-10T12:04:33;4.20;;;1.97;;
17852;SDS011;9052;53.494;14.376;2023-05-10T12:07:00;8.40;;;2.07;;
17852;SDS011;9052;53.494;14.376;2023-05-10T12:09:27;7.50;;;2.90;;
17852;SDS011;9052;53.494;14.376;2023-05-10T12:11:55;2.47;;;1.63;;
17852;SDS011;9052;53.494;14.376;2023-05-10T12:14:22;7.37;;;2.50;;
17852;SDS011;9052;53.494;14.376;2023-05-10T12:16:50;3.57;;;2.30;;
17852;SDS011;9052;53.494;14.376;2023-05-10T12:19:18;25.60;;;3.63;;
17852;SDS011;9052;53.494;14.376;2023-05-10T12:21:46;6.53;;;2.83;;
17852;SDS011;9052;53.494;14.376;2023-05-10T12:24:13;9.90;;;3.23;;
17852;SDS011;9052;53.494;14.376;2023-05-10T12:26:43;11.37;;;2.93;;
17852;SDS011;9052;53.494;14.376;2023-05-10T12:29:13;4.00;;;2.33;;
17852;SDS011;9052;53.494;14.376;2023-05-10T12:31:54;3.60;;;2.70;;
17852;SDS011;9052;53.494;14.376;2023-05-10T12:34:25;4.40;;;3.07;;
17852;SDS011;9052;53.494;14.376;2023-05-10T12:36:52;11.47;;;2.10;;
17852;SDS011;9052;53.494;14.376;2023-05-10T12:39:19;13.07;;;2.90;;
17852;SDS011;9052;53.494;14.376;2023-05-10T12:41:45;29.33;;;3.57;;
17852;SDS011;9052;53.494;14.376;2023-05-10T12:44:12;4.90;;;1.93;;
17852;SDS011;9052;53.494;14.376;2023-05-10T12:46:39;14.10;;;2.90;;
17852;SDS011;9052;53.494;14.376;2023-05-10T12:49:07;24.23;;;2.67;;
17852;SDS011;9052;53.494;14.376;2023-05-10T12:51:34;36.10;;;3.17;;
17852;SDS011;9052;53.494;14.376;2023-05-10T12:54:00;13.53;;;2.77;;
17852;SDS011;9052;53.494;14.376;2023-05-10T12:56:27;2.17;;;1.97;;
17852;SDS011;9052;53.494;14.376;2023-05-10T12:58:53;4.27;;;2.20;;
17852;SDS011;9052;53.494;14.376;2023-05-10T13:01:20;4.53;;;2.17;;
17852;SDS011;9052;53.494;14.376;2023-05-10T13:03:47;24.27;;;2.37;;
17852;SDS011;9052;53.494;14.376;2023-05-10T13:06:14;6.90;;;2.20;;
17852;SDS011;9052;53.494;14.376;2023-05-10T13:08:41;4.47;;;3.20;;
17852;SDS011;9052;53.494;14.376;2023-05-10T13:11:08;6.00;;;2.80;;
17852;SDS011;9052;53.494;14.376;2023-05-10T13:13:34;2.10;;;2.00;;
17852;SDS011;9052;53.494;14.376;2023-05-10T13:16:01;2.87;;;2.47;;
17852;SDS011;9052;53.494;14.376;2023-05-10T13:18:27;1.80;;;1.70;;
17852;SDS011;9052;53.494;14.376;2023-05-10T13:20:54;3.00;;;2.33;;
17852;SDS011;9052;53.494;14.376;2023-05-10T13:23:22;10.23;;;1.90;;
17852;SDS011;9052;53.494;14.376;2023-05-10T13:25:48;3.73;;;2.10;;
17852;SDS011;9052;53.494;14.376;2023-05-10T13:28:15;40.10;;;4.43;;
17852;SDS011;9052;53.494;14.376;2023-05-10T13:30:42;13.73;;;2.40;;
17852;SDS011;9052;53.494;14.376;2023-05-10T13:33:08;15.90;;;2.27;;
17852;SDS011;9052;53.494;14.376;2023-05-10T13:35:35;21.57;;;3.00;;
17852;SDS011;9052;53.494;14.376;2023-05-10T13:38:01;4.23;;;2.50;;
17852;SDS011;9052;53.494;14.376;2023-05-10T13:40:29;3.77;;;2.20;;
17852;SDS011;9052;53.494;14.376;2023-05-10T13:42:56;10.80;;;2.67;;
17852;SDS011;9052;53.494;14.376;2023-05-10T13:45:23;6.40;;;2.37;;
17852;SDS011;9052;53.494;14.376;2023-05-10T13:47:49;3.70;;;2.10;;
17852;SDS011;9052;53.494;14.376;2023-05-10T13:50:17;5.40;;;2.40;;
17852;SDS011;9052;53.494;14.376;2023-05-10T13:52:43;10.40;;;2.70;;
17852;SDS011;9052;53.494;14.376;2023-05-10T13:55:10;5.20;;;2.17;;
17852;SDS011;9052;53.494;14.376;2023-05-10T13:57:39;9.50;;;2.60;;
17852;SDS011;9052;53.494;14.376;2023-05-10T14:00:07;17.17;;;2.23;;
17852;SDS011;9052;53.494;14.376;2023-05-10T14:02:33;2.67;;;2.43;;
17852;SDS011;9052;53.494;14.376;2023-05-10T14:05:00;16.70;;;2.27;;
17852;SDS011;9052;53.494;14.376;2023-05-10T14:07:27;14.33;;;2.30;;
17852;SDS011;9052;53.494;14.376;2023-05-10T14:09:53;9.27;;;2.53;;
17852;SDS011;9052;53.494;14.376;2023-05-10T14:12:20;15.10;;;2.63;;
17852;SDS011;9052;53.494;14.376;2023-05-10T14:14:48;17.87;;;3.73;;
17852;SDS011;9052;53.494;14.376;2023-05-10T14:17:14;6.53;;;3.07;;
17852;SDS011;9052;53.494;14.376;2023-05-10T14:19:41;7.23;;;2.80;;
17852;SDS011;9052;53.494;14.376;2023-05-10T14:22:08;12.83;;;2.87;;
17852;SDS011;9052;53.494;14.376;2023-05-10T14:24:35;6.93;;;2.80;;
17852;SDS011;9052;53.494;14.376;2023-05-10T14:27:01;9.60;;;1.97;;
17852;SDS011;9052;53.494;14.376;2023-05-10T14:29:28;4.83;;;2.23;;
17852;SDS011;9052;53.494;14.376;2023-05-10T14:31:56;10.73;;;2.93;;
17852;SDS011;9052;53.494;14.376;2023-05-10T14:34:22;8.43;;;2.20;;
17852;SDS011;9052;53.494;14.376;2023-05-10T14:36:49;7.53;;;2.63;;
17852;SDS011;9052;53.494;14.376;2023-05-10T14:39:16;6.33;;;2.53;;
17852;SDS011;9052;53.494;14.376;2023-05-10T14:41:43;3.70;;;2.37;;
17852;SDS011;9052;53.494;14.376;2023-05-10T14:44:10;3.00;;;2.30;;
17852;SDS011;9052;53.494;14.376;2023-05-10T14:46:37;7.33;;;2.67;;
17852;SDS011;9052;53.494;14.376;2023-05-10T14:49:06;13.40;;;2.33;;
17852;SDS011;9052;53.494;14.376;2023-05-10T14:51:32;4.23;;;2.87;;
17852;SDS011;9052;53.494;14.376;2023-05-10T14:53:59;16.17;;;3.30;;
17852;SDS011;9052;53.494;14.376;2023-05-10T14:56:27;3.10;;;2.80;;